Time;durP1;ratioP1;P1;durP2;ratioP2;P2;SDS_P1;SDS_P2;PMS_P1;PMS_P2;Temp;Humidity;BMP_temperature;BMP_pressure;BME280_temperature;BME280_humidity;BME280_pressure;Samples;Min_cycle;Max_cycle;Signal;HPM_P1;HPM_P2
2021/12/23 00:00:49;;;;;;;32.33;19.20;;;0.30;99.90;;;;;;5013784;28;20038;-63
2021/12/23 00:03:15;;;;;;;33.35;18.27;;;0.20;99.90;;;;;;5013096;28;20388;-63
2021/12/23 00:05:40;;;;;;;28.23;18.00;;;0.20;99.90;;;;;;5013630;28;20033;-62
2021/12/23 00:08:06;;;;;;;27.67;17.73;;;-0.10;99.90;;;;;;5014179;28;20040;-64
2021/12/23 00:10:32;;;;;;;28.92;16.48;;;-0.20;99.90;;;;;;5013771;28;20022;-66
2021/12/23 00:12:57;;;;;;;31.02;18.77;;;-0.40;99.90;;;;;;5012660;28;20026;-63
2021/12/23 00:15:37;;;;;;;32.65;19.20;;;-0.50;99.90;;;;;;5012846;28;20084;-63
2021/12/23 00:23:35;;;;;;;28.90;17.83;;;-0.40;99.90;;;;;;5014072;28;20033;-64
2021/12/23 00:26:02;;;;;;;29.58;19.02;;;-0.30;99.90;;;;;;5012985;28;20037;-63
2021/12/23 00:28:29;;;;;;;31.23;18.60;;;-0.40;99.90;;;;;;5013506;28;20101;-63
2021/12/23 00:30:55;;;;;;;29.23;17.60;;;-0.40;99.90;;;;;;5014025;28;20029;-62
2021/12/23 00:33:22;;;;;;;30.90;18.05;;;-0.50;99.90;;;;;;5015393;28;20486;-63
2021/12/23 00:35:48;;;;;;;28.02;16.75;;;-0.60;99.90;;;;;;5013996;28;20049;-64
2021/12/23 00:38:23;;;;;;;31.48;19.23;;;-0.70;99.90;;;;;;5015454;28;20037;-63
2021/12/23 00:40:48;;;;;;;28.95;18.95;;;-0.50;99.90;;;;;;5012508;28;20120;-64
2021/12/23 00:43:14;;;;;;;29.48;18.10;;;-0.60;99.90;;;;;;5013255;28;20498;-62
2021/12/23 00:45:40;;;;;;;34.97;17.95;;;-0.70;99.90;;;;;;5012209;28;20040;-64
2021/12/23 00:48:05;;;;;;;29.63;18.35;;;-0.70;99.90;;;;;;5015772;28;20022;-63
2021/12/23 00:50:31;;;;;;;28.80;17.08;;;-0.80;99.90;;;;;;5016031;28;20030;-64
2021/12/23 00:53:00;;;;;;;30.98;18.30;;;-0.70;99.90;;;;;;5011705;28;20026;-63
2021/12/23 00:55:25;;;;;;;32.65;18.90;;;-0.60;99.90;;;;;;5013134;28;20037;-63
2021/12/23 00:57:51;;;;;;;27.60;17.60;;;-0.70;99.90;;;;;;5012709;28;20489;-63
2021/12/23 01:00:20;;;;;;;33.95;19.02;;;-0.70;99.90;;;;;;5013517;28;20495;-64
2021/12/23 01:02:47;;;;;;;31.02;18.98;;;-0.80;99.90;;;;;;5012616;28;20030;-64
2021/12/23 01:05:17;;;;;;;28.45;17.42;;;-0.80;99.90;;;;;;5013392;28;20037;-64
2021/12/23 01:07:43;;;;;;;29.85;18.15;;;-0.60;99.90;;;;;;5012534;28;20022;-64
2021/12/23 01:10:10;;;;;;;34.33;19.85;;;-0.60;99.90;;;;;;5013050;28;20453;-63
2021/12/23 01:12:52;;;;;;;31.23;19.08;;;-0.30;99.90;;;;;;5013003;28;20025;-66
2021/12/23 01:17:59;;;;;;;29.02;16.77;;;-0.40;99.90;;;;;;5014568;28;20034;-63
2021/12/23 01:20:29;;;;;;;32.05;17.80;;;-0.50;99.90;;;;;;5015346;28;20055;-69
2021/12/23 01:23:00;;;;;;;30.77;18.67;;;-0.60;99.90;;;;;;5012790;28;20022;-64
2021/12/23 01:25:26;;;;;;;34.58;19.30;;;-0.40;99.90;;;;;;5013578;28;20337;-64
2021/12/23 01:27:53;;;;;;;28.00;17.52;;;-0.40;99.90;;;;;;5013124;28;20026;-64
2021/12/23 01:30:20;;;;;;;40.47;19.83;;;-0.50;99.90;;;;;;5016005;28;20053;-66
2021/12/23 01:32:48;;;;;;;33.78;19.50;;;-0.50;99.90;;;;;;5016161;28;20483;-64
2021/12/23 01:35:14;;;;;;;32.03;18.70;;;-0.50;99.90;;;;;;5017406;28;20045;-64
2021/12/23 01:37:40;;;;;;;29.58;18.48;;;-0.50;99.90;;;;;;5016958;28;20100;-64
2021/12/23 01:40:07;;;;;;;33.15;19.63;;;-0.60;99.90;;;;;;5015628;28;20026;-64
2021/12/23 01:42:33;;;;;;;33.53;19.23;;;-0.80;99.90;;;;;;5016900;28;20395;-64
2021/12/23 01:44:59;;;;;;;33.72;19.70;;;-0.60;99.90;;;;;;5016606;28;20034;-62
2021/12/23 01:47:29;;;;;;;30.83;18.00;;;-0.60;99.90;;;;;;5017009;28;20026;-64
2021/12/23 01:49:55;;;;;;;30.33;18.83;;;-0.60;99.90;;;;;;5016229;28;20026;-62
2021/12/23 01:52:21;;;;;;;31.45;18.33;;;-0.90;99.90;;;;;;5017309;28;20056;-63
2021/12/23 01:54:49;;;;;;;35.40;18.50;;;-1.00;99.90;;;;;;5016554;28;20064;-72
2021/12/23 01:57:16;;;;;;;31.58;18.67;;;-1.00;99.90;;;;;;5017936;28;20058;-68
2021/12/23 01:59:42;;;;;;;32.42;17.45;;;-0.90;99.90;;;;;;5018558;28;20061;-62
2021/12/23 02:02:08;;;;;;;33.53;18.95;;;-1.10;99.90;;;;;;5018975;28;20034;-65
2021/12/23 02:04:33;;;;;;;30.25;17.50;;;-1.00;99.90;;;;;;5016832;28;20107;-65
2021/12/23 02:06:59;;;;;;;30.17;18.60;;;-1.00;99.90;;;;;;5016122;28;20034;-64
2021/12/23 02:09:25;;;;;;;30.33;18.08;;;-0.90;99.90;;;;;;5016525;28;20455;-63
2021/12/23 02:11:50;;;;;;;30.48;18.85;;;-1.00;99.90;;;;;;5016140;28;20034;-62
2021/12/23 02:14:18;;;;;;;32.88;18.77;;;-1.00;99.90;;;;;;5015893;28;20495;-62
2021/12/23 02:16:44;;;;;;;27.65;17.30;;;-1.00;99.90;;;;;;5016843;28;20045;-65
2021/12/23 02:19:17;;;;;;;31.42;18.75;;;-1.20;99.90;;;;;;5018931;28;20030;-63
2021/12/23 02:21:44;;;;;;;34.78;18.77;;;-1.20;99.90;;;;;;5017809;28;20116;-64
2021/12/23 02:24:10;;;;;;;32.78;19.33;;;-1.20;99.90;;;;;;5018032;28;20526;-65
2021/12/23 02:26:39;;;;;;;33.85;19.45;;;-1.30;99.90;;;;;;5018019;28;20069;-64
2021/12/23 02:29:05;;;;;;;34.85;18.52;;;-1.30;99.90;;;;;;5017244;28;20057;-65
2021/12/23 02:31:31;;;;;;;35.28;19.50;;;-1.10;99.90;;;;;;5018151;28;20132;-63
2021/12/23 02:33:57;;;;;;;34.80;19.13;;;-1.00;99.90;;;;;;5017246;28;20025;-63
2021/12/23 02:36:23;;;;;;;30.40;17.65;;;-1.00;99.90;;;;;;5018002;28;20038;-64
2021/12/23 02:38:49;;;;;;;33.15;20.80;;;-1.00;99.90;;;;;;5017982;28;20037;-64
2021/12/23 02:41:15;;;;;;;31.60;19.17;;;-0.80;99.90;;;;;;5017314;28;20026;-64
2021/12/23 02:43:41;;;;;;;29.95;18.83;;;-0.70;99.90;;;;;;5018612;28;20076;-65
2021/12/23 02:46:06;;;;;;;26.67;16.55;;;-0.70;99.90;;;;;;5017626;28;20034;-64
2021/12/23 02:48:36;;;;;;;36.83;18.42;;;-0.80;99.90;;;;;;5016763;28;20101;-64
2021/12/23 02:51:06;;;;;;;32.45;18.50;;;-1.00;99.90;;;;;;5016067;28;20026;-65
2021/12/23 02:53:31;;;;;;;35.70;18.88;;;-1.00;99.90;;;;;;5017170;28;20040;-63
2021/12/23 02:55:59;;;;;;;30.63;18.60;;;-1.00;99.90;;;;;;5014920;28;20030;-63
2021/12/23 02:58:25;;;;;;;33.60;19.13;;;-1.00;99.90;;;;;;5015576;28;20112;-63
2021/12/23 03:00:53;;;;;;;31.02;17.83;;;-1.00;99.90;;;;;;5014884;28;20044;-62
2021/12/23 03:03:19;;;;;;;31.70;18.75;;;-0.80;99.90;;;;;;5015414;28;20084;-62
2021/12/23 03:05:53;;;;;;;29.67;18.50;;;-0.90;99.90;;;;;;5013391;28;20546;-61
2021/12/23 03:08:41;;;;;;;31.45;18.65;;;-0.80;99.90;;;;;;5015302;28;20025;-62
2021/12/23 03:11:10;;;;;;;27.92;17.73;;;-0.70;99.90;;;;;;5014697;28;20022;-63
2021/12/23 03:13:37;;;;;;;28.27;18.05;;;-0.70;99.90;;;;;;5015936;28;20030;-68
2021/12/23 03:16:04;;;;;;;29.30;17.48;;;-0.90;99.90;;;;;;5015294;28;20096;-62
2021/12/23 03:18:30;;;;;;;33.00;18.80;;;-0.80;99.90;;;;;;5016518;28;20026;-66
2021/12/23 03:20:57;;;;;;;33.92;18.75;;;-0.90;99.90;;;;;;5015116;28;20391;-67
2021/12/23 03:23:23;;;;;;;30.27;18.75;;;-1.00;99.90;;;;;;5015553;28;20360;-63
2021/12/23 03:25:48;;;;;;;38.08;19.27;;;-0.90;99.90;;;;;;5014420;28;20048;-62
2021/12/23 03:28:14;;;;;;;31.17;20.23;;;-1.00;99.90;;;;;;5014995;28;20065;-62
2021/12/23 03:30:40;;;;;;;36.45;20.20;;;-0.90;99.90;;;;;;5014934;28;20368;-63
2021/12/23 03:33:06;;;;;;;34.70;17.85;;;-0.90;99.90;;;;;;5014414;28;20495;-64
2021/12/23 03:35:32;;;;;;;30.48;19.63;;;-0.80;99.90;;;;;;5013619;28;20125;-64
2021/12/23 03:37:58;;;;;;;27.13;17.25;;;-0.70;99.90;;;;;;5013603;28;20029;-63
2021/12/23 03:40:26;;;;;;;32.03;19.02;;;-0.60;99.90;;;;;;5016404;28;20514;-64
2021/12/23 03:42:52;;;;;;;35.03;18.30;;;-0.70;99.90;;;;;;5016040;28;20460;-66
2021/12/23 03:45:18;;;;;;;38.10;20.30;;;-0.80;99.90;;;;;;5017132;28;20113;-64
2021/12/23 03:47:48;;;;;;;28.98;18.40;;;-1.10;99.90;;;;;;5016073;28;20029;-62
2021/12/23 03:50:16;;;;;;;36.85;18.70;;;-1.20;99.90;;;;;;5015219;28;20463;-63
2021/12/23 03:52:43;;;;;;;35.22;22.40;;;-1.10;99.90;;;;;;5016322;28;20030;-67
2021/12/23 03:55:09;;;;;;;31.80;18.08;;;-1.10;99.90;;;;;;5016245;28;20570;-65
2021/12/23 03:57:34;;;;;;;33.97;17.77;;;-1.10;99.90;;;;;;5017732;28;20073;-63
2021/12/23 04:00:00;;;;;;;28.10;17.75;;;-1.00;99.90;;;;;;5016608;28;20029;-67
2021/12/23 04:02:25;;;;;;;32.13;19.65;;;-1.00;99.90;;;;;;5015314;28;20041;-66
2021/12/23 04:04:51;;;;;;;30.80;17.48;;;-0.90;99.90;;;;;;5015259;28;20060;-65
2021/12/23 04:07:17;;;;;;;32.13;18.25;;;-0.90;99.90;;;;;;5014845;28;20030;-65
2021/12/23 04:09:42;;;;;;;33.10;18.90;;;-0.90;99.90;;;;;;5015708;28;20026;-64
2021/12/23 04:12:09;;;;;;;31.23;18.67;;;-1.00;99.90;;;;;;5012706;28;20060;-65
2021/12/23 04:14:34;;;;;;;31.65;18.98;;;-1.00;99.90;;;;;;5013085;28;20101;-63
2021/12/23 04:17:00;;;;;;;31.50;18.75;;;-1.10;99.90;;;;;;5013483;28;20030;-63
2021/12/23 04:19:30;;;;;;;33.70;21.25;;;-1.00;99.90;;;;;;5014266;28;20053;-64
2021/12/23 04:21:57;;;;;;;35.08;20.52;;;-0.80;99.90;;;;;;5013768;28;20084;-63
2021/12/23 04:24:24;;;;;;;33.63;19.90;;;-0.90;99.90;;;;;;5013893;28;20072;-62
2021/12/23 04:26:50;;;;;;;31.35;18.33;;;-1.00;99.90;;;;;;5012549;28;20262;-65
2021/12/23 04:29:15;;;;;;;29.73;19.27;;;-0.90;99.90;;;;;;5012893;28;20058;-62
2021/12/23 04:31:41;;;;;;;32.33;18.65;;;-0.90;99.90;;;;;;5014540;28;20042;-64
2021/12/23 04:34:07;;;;;;;31.75;19.48;;;-0.70;99.90;;;;;;5013556;28;20213;-64
2021/12/23 04:36:33;;;;;;;32.03;18.33;;;-0.90;99.90;;;;;;5015046;28;20022;-62
2021/12/23 04:38:59;;;;;;;33.08;20.38;;;-0.90;99.90;;;;;;5014487;28;20038;-65
2021/12/23 04:41:27;;;;;;;28.35;18.30;;;-1.00;99.90;;;;;;5013657;28;20056;-65
2021/12/23 04:43:53;;;;;;;30.40;17.35;;;-0.90;99.90;;;;;;5013590;28;20056;-64
2021/12/23 04:46:19;;;;;;;30.98;17.92;;;-0.90;99.90;;;;;;5013696;28;20022;-64
2021/12/23 04:48:45;;;;;;;31.92;18.17;;;-0.90;99.90;;;;;;5013627;28;20491;-64
2021/12/23 04:51:12;;;;;;;33.28;17.92;;;-0.90;99.90;;;;;;5013218;28;20510;-64
2021/12/23 04:53:37;;;;;;;33.03;19.58;;;-0.80;99.90;;;;;;5013759;28;20037;-64
2021/12/23 04:56:04;;;;;;;29.88;18.75;;;-1.00;99.90;;;;;;5010387;28;20034;-64
2021/12/23 04:58:29;;;;;;;32.17;18.85;;;-1.00;99.90;;;;;;5012206;28;20033;-63
2021/12/23 05:00:55;;;;;;;35.80;19.98;;;-0.90;99.90;;;;;;5012682;28;20042;-66
2021/12/23 05:03:23;;;;;;;29.50;18.88;;;-1.10;99.90;;;;;;5013885;28;20058;-64
2021/12/23 05:05:49;;;;;;;31.38;18.60;;;-1.10;99.90;;;;;;5013306;28;20040;-64
2021/12/23 05:08:16;;;;;;;32.78;19.52;;;-0.90;99.90;;;;;;5013687;28;20088;-64
2021/12/23 05:10:42;;;;;;;33.00;19.50;;;-1.00;99.90;;;;;;5013074;28;20025;-63
2021/12/23 05:13:09;;;;;;;31.90;18.95;;;-1.00;99.90;;;;;;5012818;28;20041;-63
2021/12/23 05:15:34;;;;;;;30.52;18.73;;;-0.80;99.90;;;;;;5013063;28;20030;-64
2021/12/23 05:18:00;;;;;;;34.60;17.70;;;-0.80;99.90;;;;;;5012932;28;20522;-63
2021/12/23 05:20:27;;;;;;;34.30;18.20;;;-0.80;99.90;;;;;;5013582;28;20026;-63
2021/12/23 05:22:53;;;;;;;35.47;19.80;;;-0.80;99.90;;;;;;5013090;28;20026;-65
2021/12/23 05:25:19;;;;;;;30.02;18.98;;;-0.80;99.90;;;;;;5014402;28;20176;-64
2021/12/23 05:27:46;;;;;;;31.75;19.08;;;-0.80;99.90;;;;;;5013313;28;20480;-64
2021/12/23 05:30:15;;;;;;;31.45;18.95;;;-0.80;99.90;;;;;;5012647;28;20131;-64
2021/12/23 05:32:42;;;;;;;37.33;19.20;;;-0.80;99.90;;;;;;5014073;28;20475;-66
2021/12/23 05:35:09;;;;;;;29.58;18.23;;;-0.80;99.90;;;;;;5012977;28;20104;-65
2021/12/23 05:37:36;;;;;;;29.48;17.25;;;-0.80;99.90;;;;;;5013452;28;20030;-65
2021/12/23 05:40:03;;;;;;;34.67;19.83;;;-0.70;99.90;;;;;;5011865;28;20487;-63
2021/12/23 05:42:28;;;;;;;35.95;20.42;;;-0.70;99.90;;;;;;5013216;28;20054;-63
2021/12/23 05:44:54;;;;;;;34.28;19.17;;;-0.70;99.90;;;;;;5011189;28;20068;-62
2021/12/23 05:47:20;;;;;;;32.38;19.30;;;-0.60;99.90;;;;;;5012628;28;20030;-63
2021/12/23 05:49:45;;;;;;;32.28;19.42;;;-0.70;99.90;;;;;;5012974;28;20072;-63
2021/12/23 05:52:11;;;;;;;30.02;18.23;;;-0.50;99.90;;;;;;5012380;28;20105;-63
2021/12/23 05:54:37;;;;;;;32.15;18.38;;;-0.50;99.90;;;;;;5011448;28;20035;-63
2021/12/23 05:57:03;;;;;;;32.25;19.42;;;-0.50;99.90;;;;;;5012941;28;20037;-63
2021/12/23 05:59:30;;;;;;;33.13;19.65;;;-0.60;99.90;;;;;;5012879;28;20040;-63
2021/12/23 06:01:56;;;;;;;35.78;20.52;;;-0.60;99.90;;;;;;5011245;28;20038;-65
2021/12/23 06:04:21;;;;;;;31.77;18.90;;;-0.60;99.90;;;;;;5012066;28;20045;-64
2021/12/23 06:06:47;;;;;;;34.78;18.25;;;-0.50;99.90;;;;;;5011852;28;20037;-63
2021/12/23 06:09:13;;;;;;;35.13;19.52;;;-0.60;99.90;;;;;;5011273;28;20307;-64
2021/12/23 06:11:38;;;;;;;33.55;18.63;;;-1.00;99.90;;;;;;5012844;28;20030;-64
2021/12/23 06:14:04;;;;;;;35.95;21.15;;;-0.70;99.90;;;;;;5011894;28;20479;-65
2021/12/23 06:16:29;;;;;;;33.95;20.88;;;-0.80;99.90;;;;;;5014070;28;20022;-64
2021/12/23 06:18:55;;;;;;;35.63;21.45;;;-0.80;99.90;;;;;;5014936;28;20380;-63
2021/12/23 06:21:22;;;;;;;32.63;20.02;;;-0.90;99.90;;;;;;5016623;28;20472;-63
2021/12/23 06:23:48;;;;;;;33.17;19.55;;;-1.00;99.90;;;;;;5016133;28;20395;-64
2021/12/23 06:26:13;;;;;;;35.05;18.95;;;-0.80;99.90;;;;;;5014335;28;20382;-63
2021/12/23 06:28:39;;;;;;;34.15;20.15;;;-0.90;99.90;;;;;;5015920;28;20389;-63
2021/12/23 06:31:05;;;;;;;32.97;19.15;;;-0.80;99.90;;;;;;5016088;28;20053;-64
2021/12/23 06:33:30;;;;;;;36.60;19.98;;;-0.90;99.90;;;;;;5015005;28;20475;-64
2021/12/23 06:35:56;;;;;;;33.28;19.02;;;-0.80;99.90;;;;;;5015323;28;20465;-65
2021/12/23 06:38:21;;;;;;;31.77;19.48;;;-0.80;99.90;;;;;;5014869;28;20025;-64
2021/12/23 06:40:47;;;;;;;35.42;19.67;;;-0.70;99.90;;;;;;5016766;28;20068;-64
2021/12/23 06:43:13;;;;;;;42.83;22.05;;;-0.50;99.90;;;;;;5015534;28;20022;-64
2021/12/23 06:45:38;;;;;;;32.63;19.85;;;-0.40;99.90;;;;;;5015802;28;20030;-64
2021/12/23 06:48:04;;;;;;;37.20;19.98;;;-0.50;99.90;;;;;;5015377;28;20029;-64
2021/12/23 06:50:30;;;;;;;37.25;20.13;;;-0.40;99.90;;;;;;5015879;28;20025;-63
2021/12/23 06:52:58;;;;;;;37.22;21.77;;;-0.30;99.90;;;;;;5015562;28;20486;-67
2021/12/23 06:55:24;;;;;;;37.22;19.48;;;-0.30;99.90;;;;;;5015966;28;20049;-64
2021/12/23 06:57:55;;;;;;;38.63;19.90;;;-0.10;99.90;;;;;;5015895;28;20061;-64
2021/12/23 07:00:22;;;;;;;35.78;19.30;;;-0.20;99.90;;;;;;5015202;28;20088;-65
2021/12/23 07:02:47;;;;;;;39.63;20.98;;;-0.30;99.90;;;;;;5015883;28;20396;-65
2021/12/23 07:05:14;;;;;;;37.47;20.10;;;-0.30;99.90;;;;;;5013919;28;20037;-64
2021/12/23 07:07:50;;;;;;;33.38;19.35;;;-0.30;99.90;;;;;;5015758;28;20022;-63
2021/12/23 07:10:16;;;;;;;32.95;20.55;;;-0.20;99.90;;;;;;5014399;28;20029;-64
2021/12/23 07:12:42;;;;;;;41.17;22.33;;;-0.20;99.90;;;;;;5016142;28;20022;-63
2021/12/23 07:15:08;;;;;;;37.13;20.95;;;-0.30;99.90;;;;;;5014184;28;20125;-64
2021/12/23 07:17:35;;;;;;;38.55;20.35;;;-0.10;99.90;;;;;;5015624;28;20026;-65
2021/12/23 07:20:02;;;;;;;41.40;21.45;;;-0.30;99.90;;;;;;5016173;28;20022;-66
2021/12/23 07:22:27;;;;;;;40.80;21.55;;;-0.40;99.90;;;;;;5014705;28;20062;-64
2021/12/23 07:24:53;;;;;;;39.28;20.90;;;-0.30;99.90;;;;;;5016374;28;20124;-64
2021/12/23 07:27:19;;;;;;;43.30;23.55;;;-0.30;99.90;;;;;;5015086;28;20076;-64
2021/12/23 07:29:44;;;;;;;42.58;23.48;;;-0.70;99.90;;;;;;5015841;28;20472;-65
2021/12/23 07:32:10;;;;;;;44.92;22.02;;;-0.60;99.90;;;;;;5015761;28;20033;-65
2021/12/23 07:34:39;;;;;;;46.08;23.02;;;-0.50;99.90;;;;;;5016729;28;20038;-66
2021/12/23 07:37:05;;;;;;;39.20;21.42;;;-0.40;99.90;;;;;;5016257;28;20026;-64
2021/12/23 07:39:31;;;;;;;43.08;22.63;;;-0.40;99.90;;;;;;5016198;28;20387;-65
2021/12/23 07:41:57;;;;;;;42.72;20.73;;;-0.50;99.90;;;;;;5017689;28;20110;-67
2021/12/23 07:44:22;;;;;;;40.75;21.65;;;-0.40;99.90;;;;;;5018109;28;20030;-64
2021/12/23 07:46:49;;;;;;;41.58;22.85;;;-0.50;99.90;;;;;;5016853;28;20033;-65
2021/12/23 07:49:16;;;;;;;36.45;20.98;;;-0.50;99.90;;;;;;5014453;28;20064;-64
2021/12/23 07:51:41;;;;;;;39.90;21.70;;;-0.70;99.90;;;;;;5015499;28;20100;-66
2021/12/23 07:54:07;;;;;;;42.78;22.55;;;-0.50;99.90;;;;;;5013821;28;20450;-67
2021/12/23 07:56:33;;;;;;;41.60;20.95;;;-0.60;99.90;;;;;;5015257;28;20025;-66
2021/12/23 07:58:58;;;;;;;38.40;22.30;;;-0.60;99.90;;;;;;5016540;28;20030;-64
2021/12/23 08:01:24;;;;;;;41.72;21.02;;;-0.50;99.90;;;;;;5015445;28;20045;-66
2021/12/23 08:03:50;;;;;;;40.25;22.10;;;-0.50;99.90;;;;;;5015361;28;20037;-65
2021/12/23 08:06:17;;;;;;;43.90;21.30;;;-0.30;99.90;;;;;;5014438;28;20040;-70
2021/12/23 08:08:54;;;;;;;41.13;22.75;;;-0.40;99.90;;;;;;5017238;28;20022;-65
2021/12/23 08:11:20;;;;;;;40.75;23.38;;;-0.40;99.90;;;;;;5016159;28;20424;-67
2021/12/23 08:13:46;;;;;;;38.95;23.45;;;-0.40;99.90;;;;;;5016760;28;20026;-65
2021/12/23 08:16:12;;;;;;;43.40;23.15;;;-0.20;99.90;;;;;;5015239;28;20065;-66
2021/12/23 08:18:37;;;;;;;43.58;23.52;;;-0.10;99.90;;;;;;5015632;28;20022;-66
2021/12/23 08:21:03;;;;;;;44.25;23.98;;;0.00;99.90;;;;;;5014682;28;20030;-65
2021/12/23 08:23:29;;;;;;;35.67;20.83;;;-0.10;99.90;;;;;;5015304;28;20082;-64
2021/12/23 08:25:59;;;;;;;50.55;25.30;;;-0.20;99.90;;;;;;5013234;28;20314;-65
2021/12/23 08:28:24;;;;;;;41.42;22.98;;;-0.40;99.90;;;;;;5012299;28;20049;-63
2021/12/23 08:30:50;;;;;;;46.33;24.42;;;-0.20;99.90;;;;;;5014906;28;20038;-65
2021/12/23 08:33:16;;;;;;;43.47;24.67;;;-0.20;99.90;;;;;;5014320;28;20175;-65
2021/12/23 08:35:42;;;;;;;41.17;22.55;;;-0.20;99.90;;;;;;5016640;28;20602;-65
2021/12/23 08:38:07;;;;;;;45.13;24.45;;;-0.20;99.90;;;;;;5016574;28;20030;-68
2021/12/23 08:40:34;;;;;;;47.85;23.60;;;-0.10;99.90;;;;;;5016896;28;20028;-65
2021/12/23 08:43:02;;;;;;;41.83;22.05;;;-0.20;99.90;;;;;;5017459;28;20029;-65
2021/12/23 08:45:28;;;;;;;49.95;23.92;;;-0.20;99.90;;;;;;5016362;28;20030;-65
2021/12/23 08:47:56;;;;;;;47.10;23.83;;;-0.30;99.90;;;;;;5015706;28;20044;-65
2021/12/23 08:50:24;;;;;;;47.25;22.67;;;-0.50;99.90;;;;;;5013671;28;20033;-69
2021/12/23 08:52:50;;;;;;;41.05;22.73;;;-0.60;99.90;;;;;;5012573;28;20060;-65
2021/12/23 08:55:18;;;;;;;48.50;25.15;;;-0.50;99.90;;;;;;5013131;28;20133;-64
2021/12/23 08:57:44;;;;;;;45.28;24.27;;;-0.50;99.90;;;;;;5012604;28;20130;-65
2021/12/23 09:00:15;;;;;;;41.95;22.15;;;-0.60;99.90;;;;;;5013298;28;20041;-65
2021/12/23 09:02:42;;;;;;;46.80;24.02;;;-0.60;99.90;;;;;;5012364;28;20030;-63
2021/12/23 09:05:09;;;;;;;46.95;23.58;;;-0.60;99.90;;;;;;5013543;28;20026;-66
2021/12/23 09:07:35;;;;;;;44.45;22.25;;;-0.60;99.90;;;;;;5012327;28;20385;-64
2021/12/23 09:10:01;;;;;;;45.72;23.75;;;-0.50;99.90;;;;;;5013629;28;20488;-64
2021/12/23 09:12:27;;;;;;;44.95;23.08;;;-0.30;99.90;;;;;;5013318;28;20486;-64
2021/12/23 09:14:54;;;;;;;45.58;24.40;;;-0.40;99.90;;;;;;5013787;28;20037;-65
2021/12/23 09:17:20;;;;;;;45.08;23.65;;;-0.40;99.90;;;;;;5013416;28;20041;-63
2021/12/23 09:19:45;;;;;;;44.03;23.98;;;-0.30;99.90;;;;;;5012626;28;20030;-67
2021/12/23 09:22:11;;;;;;;47.88;23.70;;;-0.30;99.90;;;;;;5012953;28;20030;-65
2021/12/23 09:24:41;;;;;;;40.97;21.02;;;-0.30;99.90;;;;;;5003711;28;20042;-64
2021/12/23 09:27:56;;;;;;;49.05;24.40;;;-0.50;99.90;;;;;;4993244;28;20093;-65
2021/12/23 09:35:06;;;;;;;52.15;24.60;;;-0.40;99.90;;;;;;5013197;28;20045;-64
2021/12/23 09:37:32;;;;;;;46.35;23.90;;;-0.40;99.90;;;;;;5010198;28;20037;-64
2021/12/23 09:39:59;;;;;;;47.30;24.85;;;-0.40;99.90;;;;;;5013751;28;20065;-65
2021/12/23 09:42:28;;;;;;;48.15;26.13;;;-0.30;99.90;;;;;;5011468;28;20030;-64
2021/12/23 09:44:59;;;;;;;46.40;24.20;;;-0.60;99.90;;;;;;5012416;28;20029;-64
2021/12/23 09:47:30;;;;;;;42.58;22.25;;;-0.60;99.90;;;;;;5028556;28;20026;-64
2021/12/23 09:50:00;;;;;;;44.38;24.48;;;-0.50;99.90;;;;;;5013444;28;20030;-64
2021/12/23 09:52:32;;;;;;;42.63;23.80;;;-0.50;99.90;;;;;;5016707;28;20433;-65
2021/12/23 09:55:02;;;;;;;47.00;23.95;;;-0.40;99.90;;;;;;5015292;28;20041;-66
2021/12/23 09:57:29;;;;;;;48.33;23.63;;;-0.30;99.90;;;;;;5018352;28;20049;-65
2021/12/23 09:59:55;;;;;;;45.45;25.77;;;-0.30;99.90;;;;;;5036238;28;20518;-68
2021/12/23 10:02:21;;;;;;;42.70;22.73;;;-0.30;99.90;;;;;;5016865;28;20037;-63
2021/12/23 10:04:47;;;;;;;51.15;23.20;;;-0.30;99.90;;;;;;5025717;28;20038;-65
2021/12/23 10:07:13;;;;;;;46.50;24.67;;;-0.30;99.90;;;;;;5033207;28;20033;-64
2021/12/23 10:32:33;;;;;;;42.08;22.98;;;0.00;99.90;;;;;;5029010;28;20149;-64
2021/12/23 10:38:27;;;;;;;42.25;21.55;;;0.30;99.90;;;;;;5020954;28;20049;-64
2021/12/23 10:40:57;;;;;;;43.97;24.05;;;0.40;99.90;;;;;;5011148;28;20041;-65
2021/12/23 10:43:52;;;;;;;43.03;22.35;;;0.40;99.90;;;;;;5013464;28;20084;-66
2021/12/23 10:46:22;;;;;;;45.10;22.65;;;0.60;99.90;;;;;;5015317;28;20104;-64
2021/12/23 10:52:03;;;;;;;44.90;23.90;;;0.60;99.90;;;;;;5014917;28;20121;-65
2021/12/23 11:00:14;;;;;;;47.67;24.08;;;0.50;99.90;;;;;;5016272;28;20076;-65
2021/12/23 11:02:56;;;;;;;41.00;23.38;;;0.80;99.90;;;;;;5013982;28;20148;-65
2021/12/23 11:05:27;;;;;;;48.03;23.52;;;0.80;99.90;;;;;;5009820;28;20034;-64
2021/12/23 11:08:12;;;;;;;47.47;22.95;;;0.90;99.90;;;;;;5011812;28;20029;-65
2021/12/23 11:38:10;;;;;;;43.88;23.85;;;1.30;99.90;;;;;;5015581;28;20037;-65
2021/12/23 11:45:45;;;;;;;41.95;23.90;;;0.90;99.90;;;;;;5001576;28;20192;-65
2021/12/23 11:48:14;;;;;;;47.30;24.25;;;0.80;99.90;;;;;;5012788;28;20018;-69
2021/12/23 11:50:53;;;;;;;47.63;25.92;;;0.80;99.90;;;;;;5017649;28;20032;-67
2021/12/23 11:53:20;;;;;;;49.13;25.92;;;0.50;99.90;;;;;;5016519;28;20030;-66
2021/12/23 11:55:47;;;;;;;46.05;26.50;;;0.70;99.90;;;;;;5016315;28;20472;-65
2021/12/23 11:58:14;;;;;;;51.35;24.92;;;0.70;99.90;;;;;;5015857;28;20030;-67
2021/12/23 12:00:43;;;;;;;49.00;26.20;;;0.70;99.90;;;;;;5014206;28;20076;-65
2021/12/23 12:03:11;;;;;;;44.72;25.30;;;0.80;99.90;;;;;;5014624;28;20510;-66
2021/12/23 12:05:39;;;;;;;46.85;25.92;;;0.80;99.90;;;;;;5013411;28;20037;-72
2021/12/23 12:08:13;;;;;;;47.65;25.20;;;1.00;99.90;;;;;;5017002;28;20030;-66
2021/12/23 12:10:41;;;;;;;43.97;23.17;;;1.10;99.90;;;;;;5016663;28;20022;-66
2021/12/23 12:13:13;;;;;;;45.58;25.33;;;1.00;99.90;;;;;;5014509;28;20038;-72
2021/12/23 12:15:39;;;;;;;45.00;24.60;;;1.00;99.90;;;;;;5010288;28;20476;-68
2021/12/23 12:18:13;;;;;;;43.28;24.80;;;1.10;99.90;;;;;;5014729;28;20080;-66
2021/12/23 12:20:55;;;;;;;45.15;24.83;;;1.10;99.90;;;;;;5014174;28;20494;-65
2021/12/23 12:23:34;;;;;;;43.22;24.08;;;1.20;99.90;;;;;;5008168;28;20037;-65
2021/12/23 12:26:26;;;;;;;44.38;23.90;;;1.20;99.90;;;;;;5014269;28;20099;-67
2021/12/23 12:28:55;;;;;;;41.25;24.77;;;1.20;99.90;;;;;;5012376;28;20046;-67
2021/12/23 12:31:23;;;;;;;50.25;24.60;;;1.10;99.90;;;;;;5013712;28;20064;-66
2021/12/23 12:34:10;;;;;;;42.33;24.27;;;1.00;99.90;;;;;;5014396;28;20129;-66
2021/12/23 12:36:45;;;;;;;48.45;25.00;;;1.10;99.90;;;;;;5012420;28;20495;-65
2021/12/23 12:39:10;;;;;;;44.00;23.77;;;1.20;99.90;;;;;;5010538;28;20037;-67
2021/12/23 12:41:39;;;;;;;41.10;24.55;;;1.30;99.90;;;;;;5011487;28;20564;-67
2021/12/23 12:44:33;;;;;;;44.42;24.48;;;1.30;99.90;;;;;;5012585;28;20057;-66
2021/12/23 12:47:14;;;;;;;50.78;24.10;;;1.20;99.90;;;;;;5010383;28;20073;-67
2021/12/23 12:49:45;;;;;;;42.47;24.05;;;1.30;99.90;;;;;;5007565;28;20026;-66
2021/12/23 12:52:24;;;;;;;48.53;25.95;;;1.20;99.90;;;;;;5013337;28;20110;-66
2021/12/23 12:54:59;;;;;;;45.08;24.02;;;1.10;99.90;;;;;;5012858;28;20391;-68
2021/12/23 12:57:31;;;;;;;51.58;24.27;;;1.10;99.90;;;;;;5014307;28;20030;-66
2021/12/23 13:00:15;;;;;;;50.95;23.90;;;1.10;99.90;;;;;;5015526;28;20026;-67
2021/12/23 13:02:41;;;;;;;49.42;24.45;;;1.10;99.90;;;;;;5015292;28;20041;-66
2021/12/23 13:05:10;;;;;;;40.30;23.02;;;1.10;99.90;;;;;;5016596;28;20036;-65
2021/12/23 13:07:38;;;;;;;44.10;23.48;;;1.00;99.90;;;;;;5015769;28;20468;-66
2021/12/23 13:10:22;;;;;;;44.10;24.23;;;1.00;99.90;;;;;;5014429;28;20021;-66
2021/12/23 13:12:51;;;;;;;42.17;23.40;;;1.00;99.90;;;;;;5003646;28;20113;-66
2021/12/23 13:15:29;;;;;;;46.90;24.38;;;1.00;99.90;;;;;;5013944;28;20105;-66
2021/12/23 13:18:00;;;;;;;51.30;25.42;;;1.00;99.90;;;;;;5013601;28;20471;-66
2021/12/23 13:20:39;;;;;;;49.45;23.58;;;1.10;99.90;;;;;;5012237;28;20029;-65
2021/12/23 13:23:13;;;;;;;50.85;23.65;;;1.10;99.90;;;;;;5012035;28;20075;-65
2021/12/23 13:26:00;;;;;;;46.58;26.00;;;1.20;99.90;;;;;;5011304;28;20030;-66
2021/12/23 13:28:49;;;;;;;43.33;24.10;;;1.30;99.90;;;;;;5008304;28;20113;-65
2021/12/23 13:31:17;;;;;;;46.10;24.20;;;1.30;99.90;;;;;;5011226;28;20037;-65
2021/12/23 13:33:53;;;;;;;45.03;23.90;;;1.30;99.90;;;;;;5010836;28;20865;-68
2021/12/23 13:36:23;;;;;;;41.78;22.38;;;1.40;99.90;;;;;;5011180;28;20387;-64
2021/12/23 13:38:55;;;;;;;47.72;23.10;;;1.50;99.90;;;;;;5012520;28;20037;-66
2021/12/23 13:41:26;;;;;;;43.10;23.92;;;1.40;99.90;;;;;;5012849;28;20026;-66
2021/12/23 13:43:54;;;;;;;44.25;25.17;;;1.60;99.90;;;;;;5012246;28;20084;-66
2021/12/23 13:46:20;;;;;;;40.30;22.67;;;1.60;99.90;;;;;;5011948;28;20123;-67
2021/12/23 13:48:59;;;;;;;44.25;23.42;;;1.70;99.90;;;;;;5011393;28;20030;-64
2021/12/23 13:51:34;;;;;;;39.65;23.08;;;1.60;99.90;;;;;;5009952;28;20049;-65
2021/12/23 13:54:17;;;;;;;45.67;23.88;;;1.70;99.90;;;;;;5012249;28;20042;-66